Time;durP1;ratioP1;P1;durP2;ratioP2;P2;SDS_P1;SDS_P2;PMS_P1;PMS_P2;Temp;Humidity;BMP_temperature;BMP_pressure;BME280_temperature;BME280_humidity;BME280_pressure;Samples;Min_cycle;Max_cycle;Signal;HPM_P1;HPM_P2
2023/08/30 00:01:52;;;;;;;26.30;21.40;;;;;;;19.36;86.56;96045.37;104841;1257;98002;-77
2023/08/30 00:04:20;;;;;;;30.80;22.30;;;;;;;19.36;86.53;96051.18;104776;1278;98071;-77
2023/08/30 00:06:48;;;;;;;28.50;22.10;;;;;;;19.35;86.78;96055.30;104903;1259;102515;-77
2023/08/30 00:09:16;;;;;;;31.10;22.50;;;;;;;19.32;86.80;96052.79;104961;1254;100078;-77
2023/08/30 00:11:44;;;;;;;31.50;22.50;;;;;;;19.28;86.87;96050.06;104920;1260;99311;-77
2023/08/30 00:14:11;;;;;;;29.20;22.80;;;;;;;19.25;87.02;96044.91;104775;1270;98364;-85
2023/08/30 00:16:39;;;;;;;31.90;24.40;;;;;;;19.23;87.14;96042.96;104851;1254;99246;-77
2023/08/30 00:19:07;;;;;;;29.50;22.70;;;;;;;19.22;87.24;96040.96;104827;1259;102293;-77
2023/08/30 00:21:35;;;;;;;32.80;24.40;;;;;;;19.22;87.32;96041.34;104829;1260;100423;-77
2023/08/30 00:24:02;;;;;;;28.70;21.90;;;;;;;19.21;87.23;96041.15;104845;1255;100130;-76
2023/08/30 00:26:30;;;;;;;28.00;22.20;;;;;;;19.20;87.13;96034.15;104958;1254;97950;-77
2023/08/30 00:28:58;;;;;;;27.60;21.90;;;;;;;19.21;87.05;96033.04;104909;1256;98858;-84
2023/08/30 00:31:25;;;;;;;27.30;22.10;;;;;;;19.21;87.10;96030.36;104856;1267;102713;-84
2023/08/30 00:33:53;;;;;;;28.90;20.30;;;;;;;19.21;86.92;96031.23;104957;1256;101247;-84
2023/08/30 00:36:21;;;;;;;23.10;18.90;;;;;;;19.21;87.09;96029.05;104974;1254;98980;-84
2023/08/30 00:38:49;;;;;;;22.90;19.00;;;;;;;19.21;87.08;96028.02;104906;1257;97896;-83
2023/08/30 00:41:17;;;;;;;26.60;19.70;;;;;;;19.21;86.99;96024.09;104923;1258;98344;-84
2023/08/30 00:43:45;;;;;;;22.90;19.80;;;;;;;19.21;87.23;96029.98;104934;1258;102242;-84
2023/08/30 00:46:14;;;;;;;25.80;20.70;;;;;;;19.21;87.17;96023.41;104924;1276;100411;-77
2023/08/30 00:48:41;;;;;;;26.50;19.20;;;;;;;19.21;87.17;96021.98;104902;1254;98991;-77
2023/08/30 00:51:09;;;;;;;25.10;19.20;;;;;;;19.21;87.16;96020.35;104947;1276;98855;-77
2023/08/30 00:53:37;;;;;;;24.70;19.50;;;;;;;19.21;87.08;96017.23;105040;1261;98420;-77
2023/08/30 00:56:05;;;;;;;26.10;20.00;;;;;;;19.21;87.02;96015.27;104958;1267;103734;-77
2023/08/30 00:58:33;;;;;;;27.10;19.40;;;;;;;19.20;87.05;96016.06;104922;1260;100341;-77
2023/08/30 01:01:00;;;;;;;22.00;18.00;;;;;;;19.19;87.14;96018.99;105016;1268;99012;-84
2023/08/30 01:03:28;;;;;;;24.70;19.50;;;;;;;19.17;87.08;96017.38;104968;1252;99275;-84
2023/08/30 01:05:56;;;;;;;27.00;17.90;;;;;;;19.15;86.89;96017.08;104954;1261;98364;-83
2023/08/30 01:08:24;;;;;;;23.90;18.90;;;;;;;19.13;87.04;96017.11;104883;1260;101154;-84
2023/08/30 01:11:08;;;;;;;22.10;17.90;;;;;;;19.11;87.13;96017.57;104792;1259;101751;-85
2023/08/30 01:13:44;;;;;;;20.40;16.80;;;;;;;19.10;87.13;96014.80;105038;1261;99313;-85
2023/08/30 01:16:13;;;;;;;24.70;17.00;;;;;;;19.10;87.22;96017.27;104628;1274;98010;-87
2023/08/30 01:18:42;;;;;;;18.90;15.60;;;;;;;19.09;87.23;96017.84;104660;1259;98412;-87
2023/08/30 01:21:19;;;;;;;21.80;15.90;;;;;;;19.07;87.13;96015.89;105069;1253;103606;-86
2023/08/30 01:23:49;;;;;;;22.10;17.00;;;;;;;19.05;87.04;96012.97;104943;1254;100377;-85
2023/08/30 01:27:08;;;;;;;24.70;17.10;;;;;;;19.05;87.24;96009.64;104865;1255;100002;-86
2023/08/30 01:29:39;;;;;;;18.50;15.40;;;;;;;19.03;87.29;96011.36;104522;1267;99263;-77
2023/08/30 01:32:09;;;;;;;19.10;14.80;;;;;;;19.03;87.33;96012.95;104885;1260;99158;-91
2023/08/30 01:34:39;;;;;;;17.50;14.70;;;;;;;19.00;87.16;96015.40;104925;1267;103582;-90
2023/08/30 01:37:09;;;;;;;27.00;16.30;;;;;;;18.99;87.28;96014.92;104609;1261;101154;-88
2023/08/30 01:39:41;;;;;;;22.80;16.20;;;;;;;18.98;87.26;96015.92;104866;1259;99261;-89
2023/08/30 01:42:10;;;;;;;21.70;16.70;;;;;;;18.94;87.16;96018.45;104709;1261;99566;-90
2023/08/30 01:44:39;;;;;;;21.60;17.30;;;;;;;18.91;87.33;96019.38;104859;1270;98392;-89
2023/08/30 01:47:07;;;;;;;20.80;17.90;;;;;;;18.90;87.41;96016.77;104763;1264;103695;-90
2023/08/30 01:49:37;;;;;;;22.90;17.60;;;;;;;18.88;87.60;96019.15;104838;1254;101934;-89
2023/08/30 01:52:05;;;;;;;22.00;18.70;;;;;;;18.86;87.57;96020.66;104379;1266;99282;-90
2023/08/30 01:54:34;;;;;;;23.20;19.20;;;;;;;18.84;87.56;96021.02;104761;1261;98500;-89
2023/08/30 01:57:02;;;;;;;26.30;19.20;;;;;;;18.82;87.65;96023.30;104618;1261;98453;-89
2023/08/30 01:59:30;;;;;;;31.00;19.70;;;;;;;18.80;87.63;96028.03;104770;1260;103562;-90
2023/08/30 02:01:58;;;;;;;24.90;17.70;;;;;;;18.79;87.72;96028.98;104497;1261;325693;-78
2023/08/30 02:04:26;;;;;;;25.80;17.80;;;;;;;18.77;87.90;96018.89;104767;1270;98982;-79
2023/08/30 02:07:09;;;;;;;22.80;18.00;;;;;;;18.76;87.80;96017.27;104826;1270;97932;-84
2023/08/30 02:09:49;;;;;;;22.00;18.30;;;;;;;18.74;87.79;96012.19;104855;1270;98518;-85
2023/08/30 02:12:19;;;;;;;26.30;18.10;;;;;;;18.72;87.81;96008.79;104862;1261;102658;-86
2023/08/30 02:14:50;;;;;;;23.30;17.00;;;;;;;18.71;87.76;96011.38;104892;1259;100397;-85
2023/08/30 02:17:18;;;;;;;21.70;17.20;;;;;;;18.69;87.92;96009.17;104838;1254;98991;-78
2023/08/30 02:19:47;;;;;;;21.30;16.40;;;;;;;18.68;87.93;96011.11;104549;1263;99215;-78
2023/08/30 02:22:14;;;;;;;26.50;17.00;;;;;;;18.67;87.97;96012.16;104894;1276;99135;-78
2023/08/30 02:24:42;;;;;;;19.10;16.00;;;;;;;18.66;88.04;96011.56;104826;1254;102604;-78
2023/08/30 02:27:10;;;;;;;19.90;16.00;;;;;;;18.66;88.02;96015.34;104731;1257;101429;-79
2023/08/30 02:29:37;;;;;;;19.00;15.70;;;;;;;18.67;88.06;96016.31;104629;1267;98934;-78
2023/08/30 02:32:06;;;;;;;20.80;16.30;;;;;;;18.66;88.13;96014.30;104696;1260;98098;-90
2023/08/30 02:34:35;;;;;;;20.00;15.90;;;;;;;18.63;88.05;96007.88;104581;1264;98729;-91
2023/08/30 02:37:03;;;;;;;19.50;14.90;;;;;;;18.63;87.97;96009.15;104603;1260;102549;-92
2023/08/30 02:39:31;;;;;;;19.00;16.30;;;;;;;18.63;87.79;96007.16;104567;1261;108720;-92
2023/08/30 02:41:58;;;;;;;20.10;16.20;;;;;;;18.64;88.00;96003.52;104618;1274;99943;-90
2023/08/30 02:44:26;;;;;;;18.90;14.60;;;;;;;18.63;88.13;95995.70;104614;1264;98018;-91
2023/08/30 02:46:54;;;;;;;21.20;14.80;;;;;;;18.63;88.16;95990.98;104634;1258;99873;-79
2023/08/30 02:49:21;;;;;;;19.50;14.90;;;;;;;18.62;88.17;95990.19;104588;1261;103748;-78
2023/08/30 02:51:49;;;;;;;20.30;15.90;;;;;;;18.61;88.06;95987.86;104595;1260;101419;-79
2023/08/30 02:54:16;;;;;;;23.30;16.30;;;;;;;18.60;88.07;95984.60;104575;1263;100077;-79
2023/08/30 02:56:45;;;;;;;19.30;15.60;;;;;;;18.59;88.02;95984.74;104575;1257;99218;-79
2023/08/30 02:59:13;;;;;;;20.20;14.90;;;;;;;18.58;88.22;95985.08;104582;1260;98440;-79
2023/08/30 03:01:41;;;;;;;20.90;15.20;;;;;;;18.56;88.22;95983.10;104899;1254;102586;-79
2023/08/30 03:04:09;;;;;;;19.00;14.30;;;;;;;18.55;88.36;95982.95;104891;1260;100128;-85
2023/08/30 03:06:36;;;;;;;20.20;15.20;;;;;;;18.52;88.47;95981.45;104781;1259;98695;-85
2023/08/30 03:09:06;;;;;;;21.10;15.30;;;;;;;18.51;88.65;95977.05;104884;1260;98015;-85
2023/08/30 03:11:33;;;;;;;21.50;15.20;;;;;;;18.50;88.53;95981.16;104670;1262;98458;-85
2023/08/30 03:14:01;;;;;;;20.90;15.70;;;;;;;18.51;88.50;95988.31;104871;1270;103603;-85
2023/08/30 03:16:29;;;;;;;22.90;16.50;;;;;;;18.52;88.60;95997.04;104944;1259;101743;-79
2023/08/30 03:18:57;;;;;;;20.70;15.10;;;;;;;18.50;88.57;95999.64;104839;1260;99957;-79
2023/08/30 03:21:25;;;;;;;20.50;15.30;;;;;;;18.47;88.70;96004.34;104821;1270;97964;-79
2023/08/30 03:23:52;;;;;;;23.00;15.00;;;;;;;18.46;88.68;96008.63;104839;1268;98452;-79
2023/08/30 03:26:20;;;;;;;20.40;15.50;;;;;;;18.46;88.62;96013.42;104874;1254;103240;-79
2023/08/30 03:28:48;;;;;;;19.30;15.50;;;;;;;18.48;88.82;96015.52;104920;1270;100593;-79
2023/08/30 03:31:21;;;;;;;19.50;15.40;;;;;;;18.48;88.64;96015.23;104514;1257;107529;-90
2023/08/30 03:33:50;;;;;;;25.10;15.80;;;;;;;18.49;88.70;96022.48;104635;1262;98722;-89
2023/08/30 03:36:19;;;;;;;19.90;15.90;;;;;;;18.48;88.68;96024.30;104596;1261;101002;-90
2023/08/30 03:38:47;;;;;;;20.40;15.60;;;;;;;18.48;88.72;96018.35;104582;1262;103661;-91
2023/08/30 03:41:15;;;;;;;23.80;15.90;;;;;;;18.48;88.64;96018.02;104580;1260;101653;-88
2023/08/30 03:43:45;;;;;;;18.50;14.90;;;;;;;18.47;88.55;96018.32;104581;1257;99086;-90
2023/08/30 03:46:13;;;;;;;18.90;14.50;;;;;;;18.48;88.71;96021.85;104515;1262;97903;-87
2023/08/30 03:48:40;;;;;;;18.10;13.50;;;;;;;18.49;88.75;96023.96;104573;1262;98370;-90
2023/08/30 03:51:08;;;;;;;19.00;13.20;;;;;;;18.49;88.61;96025.66;104547;1261;103970;-89
2023/08/30 03:53:36;;;;;;;17.70;14.40;;;;;;;18.49;88.46;96028.45;104537;1262;100461;-90
2023/08/30 03:56:04;;;;;;;21.70;14.40;;;;;;;18.48;88.61;96034.73;104562;1263;98780;-89
2023/08/30 03:58:33;;;;;;;16.80;14.20;;;;;;;18.48;88.54;96039.34;104553;1274;98286;-85
2023/08/30 04:01:00;;;;;;;17.40;14.80;;;;;;;18.48;88.55;96036.39;104602;1263;97928;-85
2023/08/30 04:03:29;;;;;;;15.60;12.90;;;;;;;18.48;88.44;96033.58;104819;1272;102561;-83
2023/08/30 04:05:57;;;;;;;23.60;14.90;;;;;;;18.48;88.57;96035.06;104812;1259;101455;-83
2023/08/30 04:08:25;;;;;;;20.90;15.10;;;;;;;18.47;88.63;96034.98;104620;1259;99589;-83
2023/08/30 04:10:54;;;;;;;20.20;14.80;;;;;;;18.45;88.59;96033.55;104870;1259;97931;-83
2023/08/30 04:13:22;;;;;;;21.10;14.80;;;;;;;18.44;88.58;96034.82;104915;1272;97864;-83
2023/08/30 04:15:50;;;;;;;18.60;15.00;;;;;;;18.43;88.62;96034.98;104623;1262;102452;-82
2023/08/30 04:18:17;;;;;;;18.30;14.70;;;;;;;18.43;88.68;96034.45;104868;1260;100264;-82
2023/08/30 04:20:46;;;;;;;22.00;15.90;;;;;;;18.43;88.67;96030.84;104761;1259;100211;-83
2023/08/30 04:23:15;;;;;;;21.90;16.80;;;;;;;18.43;88.60;96032.09;104933;1254;98002;-83
2023/08/30 04:25:42;;;;;;;19.90;15.90;;;;;;;18.43;88.72;96032.32;104866;1257;98373;-83
2023/08/30 04:28:10;;;;;;;19.10;15.60;;;;;;;18.42;88.75;96033.91;104970;1256;102495;-83
2023/08/30 04:30:38;;;;;;;21.40;16.70;;;;;;;18.42;88.71;96034.83;104973;1267;101932;-84
2023/08/30 04:33:07;;;;;;;19.00;16.40;;;;;;;18.41;88.71;96033.27;105023;1256;99864;-84
2023/08/30 04:35:35;;;;;;;23.60;17.20;;;;;;;18.38;88.70;96034.83;104995;1263;98002;-83
2023/08/30 04:38:03;;;;;;;23.80;18.30;;;;;;;18.36;88.66;96029.64;104897;1270;98495;-83
2023/08/30 04:40:31;;;;;;;24.70;18.50;;;;;;;18.35;88.89;96026.67;104580;1262;103442;-81
2023/08/30 04:42:59;;;;;;;25.40;18.40;;;;;;;18.34;88.87;96020.63;104884;1261;101629;-82
2023/08/30 04:45:29;;;;;;;20.80;16.80;;;;;;;18.34;88.91;96017.74;104927;1258;107485;-82
2023/08/30 04:47:57;;;;;;;23.40;18.20;;;;;;;18.34;89.05;96014.69;104355;1277;98129;-81
2023/08/30 04:50:24;;;;;;;23.20;17.60;;;;;;;18.34;88.88;96018.77;104502;1262;98382;-82
2023/08/30 04:52:52;;;;;;;21.10;17.70;;;;;;;18.34;88.98;96020.53;104596;1260;103592;-82
2023/08/30 04:55:20;;;;;;;20.80;17.10;;;;;;;18.33;88.86;96020.75;104598;1264;101083;-82
2023/08/30 04:57:47;;;;;;;21.60;17.60;;;;;;;18.34;88.92;96021.89;104634;1260;98399;-82
2023/08/30 05:00:15;;;;;;;23.50;17.70;;;;;;;18.35;88.90;96025.27;104557;1280;98034;-82
2023/08/30 05:02:46;;;;;;;21.30;17.00;;;;;;;18.36;88.93;96034.41;104699;1262;98543;-83
2023/08/30 05:05:15;;;;;;;24.60;18.90;;;;;;;18.39;89.12;96036.17;104512;1278;102226;-83
2023/08/30 05:07:43;;;;;;;23.80;18.80;;;;;;;18.41;89.12;96036.92;104697;1259;108948;-83
2023/08/30 05:10:10;;;;;;;22.90;17.90;;;;;;;18.42;89.05;96039.98;104696;1260;99968;-83
2023/08/30 05:12:38;;;;;;;23.90;18.20;;;;;;;18.43;89.05;96040.45;104640;1263;98850;-83
2023/08/30 05:15:06;;;;;;;22.20;17.60;;;;;;;18.44;89.00;96042.63;104709;1259;98437;-83
2023/08/30 05:17:34;;;;;;;23.70;17.70;;;;;;;18.46;88.91;96039.98;104696;1262;103574;-81
2023/08/30 05:20:02;;;;;;;23.50;18.80;;;;;;;18.48;88.96;96041.04;104730;1277;100355;-83
2023/08/30 05:22:30;;;;;;;25.20;19.00;;;;;;;18.49;89.21;96039.38;104698;1273;99771;-83
2023/08/30 05:24:58;;;;;;;25.40;19.60;;;;;;;18.51;89.12;96043.17;105016;1257;97915;-84
2023/08/30 05:27:26;;;;;;;27.10;19.50;;;;;;;18.53;89.05;96040.36;105088;1270;98417;-83
2023/08/30 05:29:55;;;;;;;24.00;19.70;;;;;;;18.56;89.23;96040.27;105023;1257;103909;-83
2023/08/30 05:32:23;;;;;;;25.00;19.50;;;;;;;18.60;89.14;96041.23;104777;1262;111174;-83
2023/08/30 05:34:51;;;;;;;24.60;18.20;;;;;;;18.62;89.00;96041.45;104960;1254;98969;-83
2023/08/30 05:37:18;;;;;;;27.00;19.10;;;;;;;18.65;89.06;96038.02;105021;1257;99154;-83
2023/08/30 05:39:46;;;;;;;23.70;18.10;;;;;;;18.67;88.84;96036.54;105010;1259;98872;-82
2023/08/30 05:42:14;;;;;;;20.10;16.80;;;;;;;18.68;88.86;96035.33;105069;1257;102734;-81
2023/08/30 05:44:41;;;;;;;23.10;17.10;;;;;;;18.68;88.95;96026.91;105121;1254;109053;-82
2023/08/30 05:47:14;;;;;;;34.20;18.90;;;;;;;18.68;88.89;96024.27;105030;1260;100167;-83
2023/08/30 05:49:42;;;;;;;23.50;17.60;;;;;;;18.69;88.72;96027.22;105173;1257;98011;-84
2023/08/30 05:52:09;;;;;;;24.10;17.60;;;;;;;18.70;88.66;96024.30;105059;1258;98446;-83
2023/08/30 05:54:37;;;;;;;25.00;18.00;;;;;;;18.71;88.69;96024.60;105165;1270;103601;-83
2023/08/30 05:57:05;;;;;;;27.60;18.40;;;;;;;18.72;88.79;96028.48;105211;1254;101829;-82
2023/08/30 05:59:34;;;;;;;24.00;18.00;;;;;;;18.75;88.81;96028.92;105049;1254;99252;-82
2023/08/30 06:02:04;;;;;;;24.00;18.30;;;;;;;18.79;88.76;96026.19;105136;1253;97948;-82
2023/08/30 06:04:32;;;;;;;26.30;17.80;;;;;;;18.83;88.71;96031.91;104816;1262;98384;-82
2023/08/30 06:06:59;;;;;;;26.00;17.70;;;;;;;18.86;88.72;96035.19;104966;1254;103570;-82
2023/08/30 06:09:27;;;;;;;23.10;16.10;;;;;;;18.89;88.73;96037.78;105104;1257;101852;-83
2023/08/30 06:11:55;;;;;;;23.10;16.10;;;;;;;18.91;88.59;96040.38;104748;1260;99381;-82
2023/08/30 06:14:22;;;;;;;21.10;16.40;;;;;;;18.93;88.55;96044.62;104720;1257;97906;-82
2023/08/30 06:16:50;;;;;;;26.10;17.90;;;;;;;18.94;88.58;96043.29;104722;1260;99368;-80
2023/08/30 06:19:18;;;;;;;24.30;18.00;;;;;;;18.95;88.46;96043.59;104756;1262;102654;-80
2023/08/30 06:21:45;;;;;;;24.20;17.10;;;;;;;18.95;88.31;96048.58;104822;1260;101306;-81
2023/08/30 06:24:13;;;;;;;26.10;18.90;;;;;;;18.93;88.40;96052.16;104743;1263;99353;-81
2023/08/30 06:26:41;;;;;;;22.60;16.90;;;;;;;18.92;88.33;96051.46;104695;1262;97912;-80
2023/08/30 06:29:08;;;;;;;26.50;18.20;;;;;;;18.92;88.27;96054.32;104712;1262;98472;-80
2023/08/30 06:31:36;;;;;;;24.90;17.40;;;;;;;18.91;88.29;96059.02;104771;1261;103581;-80
2023/08/30 06:34:04;;;;;;;25.20;17.10;;;;;;;18.90;88.27;96058.55;104732;1257;100098;-80
2023/08/30 06:36:32;;;;;;;25.80;18.10;;;;;;;18.89;88.28;96058.61;104762;1279;99312;-83
2023/08/30 06:38:59;;;;;;;27.30;18.20;;;;;;;18.90;88.40;96061.02;104795;1257;98024;-83
2023/08/30 06:41:27;;;;;;;21.90;17.30;;;;;;;18.93;88.47;96066.02;104766;1261;98433;-83
2023/08/30 06:43:56;;;;;;;25.70;17.50;;;;;;;18.94;88.55;96061.56;104933;1254;104018;-82
2023/08/30 06:46:24;;;;;;;24.60;16.50;;;;;;;18.95;88.89;96061.48;105086;1257;100417;-83
2023/08/30 06:48:52;;;;;;;20.70;16.00;;;;;;;18.95;88.74;96065.23;105010;1257;100113;-83
2023/08/30 06:51:19;;;;;;;24.50;16.00;;;;;;;18.97;88.57;96066.02;105026;1257;97991;-82
2023/08/30 06:53:48;;;;;;;21.20;14.90;;;;;;;18.99;88.70;96069.66;105045;1254;98527;-83
2023/08/30 06:56:15;;;;;;;20.30;14.30;;;;;;;19.01;88.59;96069.64;104994;1259;102637;-83
2023/08/30 06:58:43;;;;;;;17.10;12.70;;;;;;;19.03;88.74;96069.13;105114;1253;100479;-83
2023/08/30 07:01:11;;;;;;;16.50;12.00;;;;;;;19.04;88.52;96066.77;104682;1257;99131;-80
2023/08/30 07:03:39;;;;;;;17.70;11.60;;;;;;;19.04;88.35;96071.90;104776;1262;99377;-80
2023/08/30 07:06:07;;;;;;;17.50;12.40;;;;;;;19.05;88.18;96080.14;104692;1262;99241;-80
2023/08/30 07:08:35;;;;;;;15.20;11.70;;;;;;;19.07;88.24;96079.91;104731;1261;102765;-80
2023/08/30 07:11:03;;;;;;;14.10;11.10;;;;;;;19.08;88.04;96084.45;104687;1262;101717;-79
2023/08/30 07:13:31;;;;;;;14.70;11.00;;;;;;;19.10;88.07;96088.98;104420;1262;100360;-80
2023/08/30 07:15:58;;;;;;;12.90;10.00;;;;;;;19.11;88.26;96095.30;104634;1258;99124;-82
2023/08/30 07:18:26;;;;;;;14.50;10.70;;;;;;;19.14;88.21;96097.84;104704;1262;98440;-80
2023/08/30 07:20:54;;;;;;;15.20;9.80;;;;;;;19.17;88.08;96101.73;104684;1262;111212;-80
2023/08/30 07:23:21;;;;;;;12.30;10.40;;;;;;;19.21;88.11;96104.06;104660;1262;100361;-80
2023/08/30 07:25:49;;;;;;;14.80;10.70;;;;;;;19.25;88.29;96100.39;104620;1257;99142;-80
2023/08/30 07:28:17;;;;;;;13.90;10.80;;;;;;;19.29;88.10;96097.45;104661;1260;98089;-80
2023/08/30 07:30:44;;;;;;;14.70;10.20;;;;;;;19.31;88.05;96097.36;104715;1261;98526;-81
2023/08/30 07:33:12;;;;;;;15.00;10.20;;;;;;;19.33;87.91;96101.45;104877;1254;103804;-80
2023/08/30 07:35:41;;;;;;;14.90;9.40;;;;;;;19.37;87.90;96102.44;105047;1257;101339;-80
2023/08/30 07:38:08;;;;;;;16.00;9.80;;;;;;;19.40;87.72;96100.33;104975;1260;99977;-80
2023/08/30 07:40:36;;;;;;;12.50;9.80;;;;;;;19.42;87.48;96096.02;104958;1270;99244;-80
2023/08/30 07:43:04;;;;;;;11.90;9.30;;;;;;;19.45;87.47;96093.71;104989;1258;98430;-80
2023/08/30 07:45:32;;;;;;;11.80;9.20;;;;;;;19.48;87.49;96097.02;105010;1259;103986;-80
2023/08/30 07:47:59;;;;;;;12.50;9.20;;;;;;;19.49;87.15;96093.77;104973;1259;100391;-80
2023/08/30 07:50:27;;;;;;;11.70;9.00;;;;;;;19.50;87.21;96094.48;104999;1258;98782;-80
2023/08/30 07:52:54;;;;;;;9.80;8.30;;;;;;;19.53;87.37;96094.23;105003;1272;97932;-80
2023/08/30 07:55:22;;;;;;;11.30;8.60;;;;;;;19.55;87.24;96095.94;105029;1254;98352;-79
2023/08/30 07:57:50;;;;;;;12.40;8.70;;;;;;;19.57;87.17;96097.86;104709;1262;102631;-80
2023/08/30 08:00:18;;;;;;;14.20;8.40;;;;;;;19.60;87.26;96097.27;104704;1262;100532;-80
2023/08/30 08:02:45;;;;;;;10.70;8.50;;;;;;;19.65;87.05;96098.40;104752;1262;99087;-80
2023/08/30 08:05:13;;;;;;;10.00;8.90;;;;;;;19.71;87.02;96097.23;104717;1261;98216;-80
2023/08/30 08:07:44;;;;;;;10.50;8.80;;;;;;;19.81;87.03;96092.20;104720;1263;99259;-80
2023/08/30 08:10:11;;;;;;;10.70;9.00;;;;;;;19.89;86.85;96092.16;104691;1262;102765;-80
2023/08/30 08:12:39;;;;;;;10.50;8.70;;;;;;;19.98;86.83;96091.81;104652;1261;101459;-83
2023/08/30 08:15:07;;;;;;;10.10;7.70;;;;;;;20.10;86.98;96096.73;104673;1257;99344;-83
2023/08/30 08:17:35;;;;;;;10.10;8.50;;;;;;;20.30;86.69;96094.92;104734;1262;98082;-83
2023/08/30 08:20:05;;;;;;;11.50;8.90;;;;;;;20.46;86.37;96088.69;104658;1262;98152;-83
2023/08/30 08:22:33;;;;;;;9.80;8.70;;;;;;;20.64;86.27;96087.27;104694;1262;102409;-82
2023/08/30 08:25:00;;;;;;;8.40;7.60;;;;;;;20.84;86.32;96084.70;104679;1257;100363;-83
2023/08/30 08:27:30;;;;;;;8.70;7.90;;;;;;;21.03;85.92;96083.48;104781;1259;99936;-84
2023/08/30 08:29:57;;;;;;;8.50;7.60;;;;;;;21.16;84.98;96080.27;104889;1256;97976;-81
2023/08/30 08:32:25;;;;;;;9.00;7.30;;;;;;;21.30;84.62;96081.57;105031;1256;97912;-84
2023/08/30 08:34:53;;;;;;;9.70;7.30;;;;;;;21.48;84.22;96078.64;104953;1256;102523;-83
2023/08/30 08:37:21;;;;;;;8.10;7.30;;;;;;;21.61;83.66;96076.84;104985;1257;100154;-84
2023/08/30 08:39:50;;;;;;;9.60;8.40;;;;;;;21.67;83.09;96076.68;104998;1259;99288;-83
2023/08/30 08:42:19;;;;;;;9.30;7.40;;;;;;;21.68;82.79;96075.11;104918;1259;97925;-84
2023/08/30 08:44:55;;;;;;;10.10;7.80;;;;;;;21.69;82.48;96079.88;105041;1256;98390;-83
2023/08/30 08:47:24;;;;;;;8.60;7.70;;;;;;;21.69;82.08;96085.30;105028;1258;102630;-81
2023/08/30 08:49:52;;;;;;;8.60;7.00;;;;;;;21.69;81.64;96088.59;104788;1265;101516;-83
2023/08/30 08:52:19;;;;;;;9.30;8.20;;;;;;;21.68;81.55;96087.04;105013;1259;99965;-83
2023/08/30 08:54:47;;;;;;;10.80;8.80;;;;;;;21.69;81.47;96088.79;104984;1255;97957;-83
2023/08/30 08:57:15;;;;;;;10.10;8.20;;;;;;;21.70;81.29;96092.32;104966;1259;98427;-82
2023/08/30 08:59:43;;;;;;;9.70;8.70;;;;;;;21.70;80.81;96092.42;104975;1259;102297;-83
2023/08/30 09:02:14;;;;;;;10.20;8.90;;;;;;;21.74;80.40;96088.67;104949;1256;100369;-84
2023/08/30 09:04:42;;;;;;;9.70;8.50;;;;;;;21.81;79.89;96085.88;105055;1257;99895;-83
2023/08/30 09:07:10;;;;;;;11.50;9.00;;;;;;;21.87;80.25;96078.21;105021;1259;97939;-83
2023/08/30 09:09:37;;;;;;;11.50;8.80;;;;;;;21.98;80.44;96070.70;104943;1259;98443;-86
2023/08/30 09:12:05;;;;;;;11.40;9.10;;;;;;;22.07;80.41;96063.38;104638;1262;103314;-83
2023/08/30 09:14:33;;;;;;;12.30;8.90;;;;;;;22.17;80.00;96060.15;104682;1262;99988;-83
2023/08/30 09:17:03;;;;;;;10.40;8.80;;;;;;;22.24;79.49;96062.30;104654;1259;99959;-84
2023/08/30 09:19:31;;;;;;;10.50;8.50;;;;;;;22.31;79.14;96055.73;104563;1279;97932;-82
2023/08/30 09:22:00;;;;;;;9.10;8.00;;;;;;;22.39;78.92;96057.38;104653;1257;98534;-82
2023/08/30 09:24:39;;;;;;;8.90;8.00;;;;;;;22.49;79.24;96063.16;104444;1267;103843;-82
2023/08/30 09:27:07;;;;;;;12.40;8.00;;;;;;;22.61;78.51;96065.88;104685;1262;101555;-83
2023/08/30 09:29:35;;;;;;;10.00;8.30;;;;;;;22.65;78.03;96065.56;104605;1262;98376;-83
2023/08/30 09:32:03;;;;;;;9.70;8.40;;;;;;;22.63;77.77;96067.53;104525;1263;98950;-80
2023/08/30 09:34:31;;;;;;;10.70;8.80;;;;;;;22.56;77.35;96068.28;104569;1262;98422;-81
2023/08/30 09:37:00;;;;;;;12.30;7.70;;;;;;;22.48;77.25;96072.38;104568;1273;102266;-81
2023/08/30 09:39:28;;;;;;;9.70;8.40;;;;;;;22.40;76.79;96075.69;104569;1262;100208;-80
2023/08/30 09:41:56;;;;;;;9.90;8.90;;;;;;;22.32;76.29;96079.73;104602;1265;98143;-79
2023/08/30 09:44:24;;;;;;;9.80;7.80;;;;;;;22.17;75.15;96077.29;104903;1256;98067;-80
2023/08/30 09:46:56;;;;;;;11.80;8.60;;;;;;;22.09;76.59;96083.40;104916;1270;98460;-80
2023/08/30 09:49:27;;;;;;;11.70;8.90;;;;;;;22.08;76.83;96085.63;104720;1265;103762;-80
2023/08/30 09:51:55;;;;;;;11.30;9.50;;;;;;;22.05;76.98;96084.39;104655;1276;101540;-80
2023/08/30 09:54:24;;;;;;;9.20;8.30;;;;;;;22.07;77.58;96080.39;105024;1272;99289;-80
2023/08/30 09:56:53;;;;;;;11.60;9.60;;;;;;;22.11;77.52;96082.95;104583;1267;98119;-80
2023/08/30 09:59:20;;;;;;;10.30;8.70;;;;;;;22.08;76.16;96085.94;105002;1259;98859;-80
2023/08/30 10:01:49;;;;;;;12.70;9.80;;;;;;;22.04;76.56;96086.66;105011;1259;102269;-83
2023/08/30 10:04:20;;;;;;;10.10;9.00;;;;;;;22.00;76.33;96084.58;104537;1267;101633;-82
2023/08/30 10:06:48;;;;;;;10.70;9.10;;;;;;;21.92;76.34;96086.13;104542;1265;100098;-80
2023/08/30 10:09:18;;;;;;;11.10;9.90;;;;;;;21.86;76.39;96090.85;104937;1259;97921;-80
2023/08/30 10:11:46;;;;;;;10.60;9.40;;;;;;;21.79;76.68;96094.91;104854;1256;98454;-79
2023/08/30 10:14:15;;;;;;;14.70;10.60;;;;;;;21.74;76.61;96096.98;104519;1266;103574;-80
2023/08/30 10:16:47;;;;;;;10.90;9.50;;;;;;;21.67;76.50;96091.38;104937;1259;101464;-79
2023/08/30 10:19:24;;;;;;;11.40;9.90;;;;;;;21.65;76.86;96087.16;104929;1259;98705;-80
2023/08/30 10:22:12;;;;;;;11.10;9.80;;;;;;;21.63;76.96;96089.07;104674;1262;98102;-79
2023/08/30 10:24:47;;;;;;;11.10;9.90;;;;;;;21.63;77.03;96089.25;104694;1261;98445;-83
2023/08/30 10:27:17;;;;;;;12.10;9.30;;;;;;;21.65;76.84;96088.74;104985;1258;103666;-83
2023/08/30 10:29:48;;;;;;;12.00;9.90;;;;;;;21.70;76.77;96087.38;105016;1254;101402;-84
2023/08/30 10:32:21;;;;;;;12.00;10.00;;;;;;;21.77;76.71;96081.91;104592;1273;99171;-83
2023/08/30 10:34:51;;;;;;;11.20;9.80;;;;;;;21.83;76.82;96070.16;105027;1260;97919;-85
2023/08/30 10:37:28;;;;;;;12.70;10.10;;;;;;;21.86;76.70;96070.29;104865;1262;98533;-82
2023/08/30 10:40:00;;;;;;;13.20;10.70;;;;;;;21.84;76.53;96075.46;104653;1262;104041;-84
2023/08/30 10:42:28;;;;;;;15.70;11.10;;;;;;;21.81;76.39;96071.38;104869;1257;100369;-83
2023/08/30 10:45:06;;;;;;;16.90;12.50;;;;;;;21.80;76.67;96067.10;104826;1259;99067;-83
2023/08/30 10:47:37;;;;;;;17.40;11.00;;;;;;;21.80;76.65;96071.23;104879;1268;99215;-86
2023/08/30 10:50:11;;;;;;;11.70;10.50;;;;;;;21.79;76.38;96075.52;104976;1256;97854;-83
2023/08/30 10:52:38;;;;;;;14.70;10.30;;;;;;;21.76;76.29;96071.27;104996;1255;103695;-82
2023/08/30 10:55:07;;;;;;;11.80;10.10;;;;;;;21.72;76.26;96067.39;104846;1259;100397;-82
2023/08/30 10:57:34;;;;;;;14.00;10.30;;;;;;;21.69;76.41;96060.27;104785;1259;100235;-82
2023/08/30 11:00:09;;;;;;;13.30;11.00;;;;;;;21.70;76.27;96054.08;104880;1259;97953;-81
2023/08/30 11:02:38;;;;;;;12.40;10.70;;;;;;;21.65;76.22;96055.90;104919;1256;98474;-81
2023/08/30 11:05:10;;;;;;;13.50;9.60;;;;;;;21.57;76.15;96065.13;104743;1261;102735;-84
2023/08/30 11:07:37;;;;;;;13.60;10.10;;;;;;;21.50;76.28;96067.89;104841;1257;101502;-84
2023/08/30 11:10:07;;;;;;;13.20;10.70;;;;;;;21.41;76.38;96068.73;104800;1258;99669;-83
2023/08/30 11:12:36;;;;;;;14.60;10.60;;;;;;;21.31;76.20;96074.63;104429;1265;98101;-84
2023/08/30 11:15:05;;;;;;;11.90;10.70;;;;;;;21.20;75.97;96079.20;104874;1268;98405;-84
2023/08/30 11:17:32;;;;;;;11.50;10.20;;;;;;;21.10;76.08;96078.70;104918;1259;103521;-79